Time;durP1;ratioP1;P1;durP2;ratioP2;P2;SDS_P1;SDS_P2;PMS_P1;PMS_P2;Temp;Humidity;BMP_temperature;BMP_pressure;BME280_temperature;BME280_humidity;BME280_pressure;Samples;Min_cycle;Max_cycle;Signal;HPM_P1;HPM_P2
2023/10/20 00:00:14;;;;;;;5.00;3.03;;;;;;;15.40;68.57;98110.63;4472364;32;33897;-81
2023/10/20 00:02:43;;;;;;;5.70;4.72;;;;;;;15.57;67.93;98115.28;4461199;32;34732;-81
2023/10/20 00:05:11;;;;;;;4.20;3.55;;;;;;;15.60;67.93;98109.66;4461273;32;34270;-81
2023/10/20 00:07:38;;;;;;;3.33;3.08;;;;;;;15.68;67.71;98108.16;4462308;32;33971;-81
2023/10/20 00:10:09;;;;;;;3.25;2.35;;;;;;;15.69;67.69;98110.69;4474540;32;32729;-81
2023/10/20 00:12:38;;;;;;;4.12;3.72;;;;;;;15.76;67.71;98103.81;4448811;32;32889;-81
2023/10/20 00:15:14;;;;;;;5.75;2.47;;;;;;;15.97;66.15;98103.66;4463221;32;32598;-81
2023/10/20 00:21:10;;;;;;;5.70;3.40;;;;;;;15.95;66.47;98092.31;4480276;32;33968;-81
2023/10/20 00:23:38;;;;;;;3.92;3.28;;;;;;;16.04;65.91;98094.09;4460337;32;33199;-81
2023/10/20 00:26:06;;;;;;;3.47;2.97;;;;;;;15.91;66.17;98109.56;4479576;32;34982;-81
2023/10/20 00:28:41;;;;;;;2.05;1.90;;;;;;;15.53;68.44;98116.53;4463737;32;33791;-81
2023/10/20 00:31:11;;;;;;;3.03;2.78;;;;;;;15.61;67.94;98108.69;4475984;32;33897;-81
2023/10/20 00:33:39;;;;;;;4.53;2.78;;;;;;;15.70;67.62;98103.53;4465174;32;34086;-81
2023/10/20 00:36:10;;;;;;;2.35;2.22;;;;;;;15.57;68.14;98095.78;4477028;32;34072;-81
2023/10/20 00:38:37;;;;;;;4.68;3.17;;;;;;;15.59;68.26;98093.84;4462659;32;33937;-80
2023/10/20 00:41:05;;;;;;;3.35;2.72;;;;;;;16.01;66.55;98086.41;4463491;32;33899;-82
2023/10/20 00:43:37;;;;;;;3.10;2.85;;;;;;;16.10;66.00;98082.06;4473638;32;34213;-81
2023/10/20 00:46:07;;;;;;;4.15;2.62;;;;;;;16.16;65.78;98075.31;4464112;32;33865;-82
2023/10/20 00:48:35;;;;;;;3.90;3.60;;;;;;;15.82;66.77;98062.50;4461944;32;34231;-82
2023/10/20 00:51:05;;;;;;;1.85;1.73;;;;;;;15.71;67.30;98060.81;4476545;32;33782;-81
2023/10/20 00:53:34;;;;;;;2.10;2.00;;;;;;;15.69;67.75;98059.28;4459518;32;33464;-81
2023/10/20 00:56:04;;;;;;;11.73;3.72;;;;;;;15.58;67.99;98055.78;4464049;32;31981;-81
2023/10/20 00:58:32;;;;;;;1.60;1.50;;;;;;;15.63;67.89;98052.69;4477152;32;34583;-81
2023/10/20 01:01:02;;;;;;;3.40;2.22;;;;;;;15.75;67.57;98045.41;4453297;32;33464;-80
2023/10/20 01:03:32;;;;;;;4.00;3.62;;;;;;;15.70;67.55;98037.00;4463772;32;32886;-82
2023/10/20 01:06:03;;;;;;;8.23;3.12;;;;;;;15.65;67.66;98033.94;4465010;32;32813;-81
2023/10/20 01:08:30;;;;;;;3.53;3.10;;;;;;;15.74;67.35;98033.09;4464333;32;33721;-81
2023/10/20 01:10:58;;;;;;;1.55;1.12;;;;;;;15.64;67.63;98029.59;4449296;32;32967;-82
2023/10/20 01:13:27;;;;;;;3.42;3.05;;;;;;;15.66;67.61;98024.97;4474385;32;34048;-81
2023/10/20 01:15:55;;;;;;;6.90;3.12;;;;;;;15.54;68.07;98011.81;4460909;32;34760;-82
2023/10/20 01:18:22;;;;;;;6.85;4.47;;;;;;;15.59;68.08;98006.91;4462265;32;33702;-81
2023/10/20 01:20:51;;;;;;;2.20;2.05;;;;;;;15.86;66.91;98010.66;4463136;32;33808;-81
2023/10/20 01:23:19;;;;;;;3.65;2.65;;;;;;;15.96;66.51;98005.31;4475848;32;34154;-82
2023/10/20 01:25:47;;;;;;;5.57;2.45;;;;;;;15.66;67.55;98004.53;4475321;32;34008;-81
2023/10/20 01:28:16;;;;;;;3.22;3.03;;;;;;;15.66;68.14;98003.69;4462823;32;32755;-81
2023/10/20 01:30:44;;;;;;;2.72;2.12;;;;;;;15.72;67.73;97997.81;4478075;32;33559;-81
2023/10/20 01:33:12;;;;;;;4.40;3.22;;;;;;;15.98;66.71;97996.19;4475439;32;34964;-81
2023/10/20 01:35:40;;;;;;;3.25;2.97;;;;;;;16.02;66.80;97996.75;4457508;32;32697;-81
2023/10/20 01:38:08;;;;;;;5.53;3.08;;;;;;;15.79;67.51;97989.09;4474104;32;33934;-81
2023/10/20 01:40:35;;;;;;;3.10;2.83;;;;;;;15.50;68.79;97993.59;4461574;32;32946;-82
2023/10/20 01:43:04;;;;;;;16.12;3.25;;;;;;;15.57;68.88;97990.25;4463788;32;33663;-81
2023/10/20 01:45:32;;;;;;;2.75;1.87;;;;;;;15.51;69.14;97984.62;4477185;32;34298;-81
2023/10/20 01:48:00;;;;;;;4.30;2.45;;;;;;;15.62;68.69;97985.34;4462184;32;32908;-80
2023/10/20 01:50:28;;;;;;;3.80;1.87;;;;;;;15.57;68.98;97982.28;4451332;32;33327;-80
2023/10/20 01:52:56;;;;;;;3.60;1.98;;;;;;;15.65;69.11;97975.41;4474045;32;34842;-81
2023/10/20 01:55:24;;;;;;;2.05;1.95;;;;;;;15.63;68.88;97978.19;4476516;32;34657;-80
2023/10/20 01:57:52;;;;;;;5.03;3.80;;;;;;;15.58;69.59;97975.97;4475393;32;34663;-81
2023/10/20 02:00:20;;;;;;;2.67;2.20;;;;;;;15.64;69.47;97974.56;4475936;32;34019;-81
2023/10/20 02:02:48;;;;;;;5.18;3.03;;;;;;;15.70;69.09;97963.34;4461108;32;33511;-81
2023/10/20 02:05:16;;;;;;;1.77;1.65;;;;;;;15.68;69.79;97969.81;4475351;32;32326;-81
2023/10/20 02:07:43;;;;;;;1.60;1.50;;;;;;;15.77;69.20;97974.28;4459791;32;34315;-81
2023/10/20 02:10:11;;;;;;;1.77;1.67;;;;;;;15.95;68.55;97969.00;4475927;32;33567;-81
2023/10/20 02:12:39;;;;;;;6.55;3.53;;;;;;;15.96;68.74;97952.91;4449687;32;33477;-81
2023/10/20 02:15:07;;;;;;;2.75;2.47;;;;;;;15.83;69.00;97963.03;4478128;32;34304;-80
2023/10/20 02:17:36;;;;;;;3.42;2.85;;;;;;;15.80;69.29;97942.03;4475889;32;32839;-81
2023/10/20 02:20:05;;;;;;;1.52;1.42;;;;;;;15.56;69.56;97939.81;4473986;32;33910;-81
2023/10/20 02:22:33;;;;;;;1.80;1.65;;;;;;;15.68;70.09;97937.88;4463511;32;34355;-81
2023/10/20 02:25:01;;;;;;;3.42;2.50;;;;;;;15.80;69.08;97934.87;4461212;32;33495;-79
2023/10/20 02:27:28;;;;;;;1.92;1.83;;;;;;;15.93;69.13;97931.06;4474798;32;33964;-81
2023/10/20 02:29:58;;;;;;;2.25;2.05;;;;;;;15.94;68.84;97930.91;4473781;32;33534;-82
2023/10/20 02:32:25;;;;;;;1.25;1.12;;;;;;;15.76;70.47;97927.34;4462773;32;33972;-82
2023/10/20 02:34:53;;;;;;;1.67;0.90;;;;;;;15.78;72.59;97933.38;4448344;32;32588;-83
2023/10/20 02:37:21;;;;;;;0.68;0.68;;;;;;;15.99;72.56;97933.97;4462516;32;32478;-82
2023/10/20 02:39:48;;;;;;;1.42;1.33;;;;;;;16.23;72.83;97929.94;4463944;32;33931;-82
2023/10/20 02:42:16;;;;;;;3.05;1.90;;;;;;;16.44;72.86;97927.87;4473927;32;34199;-82
2023/10/20 02:44:44;;;;;;;0.60;0.60;;;;;;;16.46;73.10;97944.53;4475690;32;34481;-82
2023/10/20 02:47:12;;;;;;;1.40;1.30;;;;;;;16.78;71.63;97937.91;4460652;32;34258;-83
2023/10/20 02:49:40;;;;;;;2.28;0.88;;;;;;;16.89;70.82;97940.34;4474943;32;32925;-82
2023/10/20 02:52:07;;;;;;;1.42;1.33;;;;;;;16.55;72.38;97930.31;4477074;32;34424;-83
2023/10/20 02:54:35;;;;;;;0.80;0.80;;;;;;;16.83;71.65;97930.31;4473965;32;32960;-82
2023/10/20 02:57:05;;;;;;;3.08;1.73;;;;;;;16.99;71.32;97930.44;4475129;32;34128;-82
2023/10/20 02:59:33;;;;;;;0.55;0.32;;;;;;;16.99;71.76;97925.09;4476188;32;34366;-83
2023/10/20 03:02:01;;;;;;;3.00;1.77;;;;;;;16.97;71.98;97916.44;4475816;32;34729;-83
2023/10/20 03:04:29;;;;;;;5.12;2.15;;;;;;;17.25;71.04;97921.66;4462984;32;32607;-83
2023/10/20 03:06:57;;;;;;;1.80;1.70;;;;;;;17.10;71.09;97927.56;4475992;32;33271;-82
2023/10/20 03:09:25;;;;;;;1.62;1.52;;;;;;;17.12;71.11;97922.06;4474994;32;34224;-81
2023/10/20 03:11:53;;;;;;;4.30;1.62;;;;;;;17.18;70.97;97928.59;4471895;32;34790;-81
2023/10/20 03:14:21;;;;;;;1.00;0.88;;;;;;;17.22;70.18;97941.47;4460448;32;34281;-81
2023/10/20 03:16:49;;;;;;;1.50;1.42;;;;;;;17.25;69.81;97938.50;4475530;32;33177;-81
2023/10/20 03:19:17;;;;;;;0.80;0.73;;;;;;;17.21;69.58;97941.63;4461208;32;34338;-81
2023/10/20 03:21:44;;;;;;;3.78;1.12;;;;;;;17.25;68.92;97935.00;4449600;32;33286;-81
2023/10/20 03:24:12;;;;;;;1.37;1.20;;;;;;;17.08;68.97;97937.53;4459354;32;33613;-81
2023/10/20 03:26:40;;;;;;;2.00;0.80;;;;;;;16.91;68.62;97938.38;4474630;32;35075;-81
2023/10/20 03:29:09;;;;;;;0.85;0.70;;;;;;;16.95;68.75;97931.75;4472494;32;34729;-82
2023/10/20 03:31:37;;;;;;;0.98;0.98;;;;;;;16.92;68.92;97933.88;4475389;32;34121;-82
2023/10/20 03:34:05;;;;;;;0.88;0.88;;;;;;;16.98;68.46;97934.09;4462413;32;33200;-83
2023/10/20 03:36:33;;;;;;;2.25;1.17;;;;;;;16.93;68.66;97925.72;4463717;32;33525;-82
2023/10/20 03:39:00;;;;;;;1.75;0.93;;;;;;;16.84;68.60;97931.97;4462161;32;34948;-82
2023/10/20 03:41:29;;;;;;;0.73;0.73;;;;;;;16.88;69.10;97930.69;4476551;32;34863;-82
2023/10/20 03:43:57;;;;;;;2.15;1.95;;;;;;;17.04;68.17;97932.66;4452153;32;33919;-82
2023/10/20 03:46:26;;;;;;;8.32;1.40;;;;;;;17.08;68.13;97928.69;4475220;32;35008;-81
2023/10/20 03:48:54;;;;;;;1.48;1.37;;;;;;;16.91;68.56;97925.06;4476879;32;33669;-82
2023/10/20 03:51:22;;;;;;;4.62;1.65;;;;;;;16.83;69.60;97914.31;4473262;32;34103;-82
2023/10/20 03:53:55;;;;;;;4.20;2.12;;;;;;;16.88;69.72;97920.84;4475075;32;33500;-82
2023/10/20 03:56:23;;;;;;;0.60;0.60;;;;;;;17.17;68.66;97932.25;4476313;32;33428;-82
2023/10/20 03:58:51;;;;;;;11.85;3.47;;;;;;;16.79;69.96;97929.75;4452112;32;34486;-82
2023/10/20 04:01:19;;;;;;;1.20;1.08;;;;;;;16.89;69.41;97925.19;4479398;32;33840;-81
2023/10/20 04:03:50;;;;;;;4.55;2.83;;;;;;;16.95;69.65;97921.09;4475894;32;33509;-82
2023/10/20 04:06:19;;;;;;;;;;;;;;;16.96;69.62;97904.09;4474269;32;33065;-82
2023/10/20 04:08:47;;;;;;;1.37;1.30;;;;;;;16.86;69.21;97908.69;4476172;32;34272;-84
2023/10/20 04:11:14;;;;;;;3.97;2.85;;;;;;;16.80;70.14;97909.28;4463042;32;33657;-83
2023/10/20 04:13:42;;;;;;;3.40;1.50;;;;;;;16.89;70.90;97903.03;4451502;32;33631;-83
2023/10/20 04:16:14;;;;;;;7.53;1.40;;;;;;;17.11;70.13;97909.72;4461067;32;33423;-81
2023/10/20 04:18:42;;;;;;;1.62;1.48;;;;;;;17.04;70.89;97908.66;4449325;32;34164;-82
2023/10/20 04:21:13;;;;;;;11.75;1.48;;;;;;;17.25;69.72;97908.34;4467681;32;34806;-81
2023/10/20 04:23:43;;;;;;;0.55;0.55;;;;;;;17.42;69.08;97896.78;4477378;32;33583;-80
2023/10/20 04:26:20;;;;;;;0.82;0.43;;;;;;;17.50;69.40;97891.50;4465771;32;32956;-81
2023/10/20 04:28:50;;;;;;;1.25;1.20;;;;;;;17.31;70.75;97891.69;4471679;32;32371;-81
2023/10/20 04:58:54;;;;;;;20.00;3.08;;;;;;;17.13;68.86;97887.22;4479017;32;33011;-81
2023/10/20 05:01:28;;;;;;;7.07;1.33;;;;;;;17.24;68.41;97894.16;4471218;32;34386;-82
2023/10/20 05:04:09;;;;;;;10.88;1.48;;;;;;;17.61;66.67;97885.91;4471763;32;34189;-81
2023/10/20 05:06:43;;;;;;;0.10;0.10;;;;;;;17.34;67.32;97892.22;4463131;32;31582;-81
2023/10/20 05:09:15;;;;;;;3.22;1.83;;;;;;;17.17;67.72;97889.59;4462272;32;33535;-81
2023/10/20 05:11:42;;;;;;;1.20;1.12;;;;;;;17.14;67.69;97891.59;4474878;32;32706;-81
2023/10/20 05:14:10;;;;;;;2.58;2.37;;;;;;;17.20;67.09;97897.28;4447879;32;32978;-82
2023/10/20 05:16:38;;;;;;;0.70;0.70;;;;;;;16.98;68.00;97901.28;4462377;32;33348;-82
2023/10/20 05:19:06;;;;;;;1.25;1.17;;;;;;;17.17;66.84;97889.59;4472077;32;33382;-81
2023/10/20 05:21:34;;;;;;;7.70;4.03;;;;;;;16.84;67.94;97884.00;4458034;32;33373;-81
2023/10/20 05:24:03;;;;;;;1.25;0.95;;;;;;;16.77;68.91;97898.94;4475198;32;34617;-81
2023/10/20 05:26:32;;;;;;;4.37;2.33;;;;;;;16.82;67.92;97885.97;4460394;32;34326;-81
2023/10/20 05:29:01;;;;;;;1.23;1.12;;;;;;;16.71;68.60;97899.50;4457348;32;33816;-82
2023/10/20 05:31:29;;;;;;;0.85;0.50;;;;;;;16.74;68.85;97896.56;4460763;32;32164;-81
2023/10/20 05:33:58;;;;;;;0.82;0.82;;;;;;;16.83;68.22;97903.66;4460517;32;37734;-82
2023/10/20 05:36:26;;;;;;;0.65;0.65;;;;;;;16.82;68.76;97912.63;4470495;32;31290;-82
2023/10/20 05:38:54;;;;;;;1.25;1.15;;;;;;;16.83;68.64;97906.31;4470676;32;33469;-80
2023/10/20 05:41:21;;;;;;;1.35;1.25;;;;;;;16.90;67.81;97899.38;4459178;31;33508;-80
2023/10/20 05:43:52;;;;;;;1.92;1.60;;;;;;;16.78;68.58;97900.59;4476931;32;34418;-81
2023/10/20 05:46:21;;;;;;;3.35;1.20;;;;;;;16.83;68.27;97908.97;4459451;32;33649;-82
2023/10/20 05:48:49;;;;;;;1.52;0.77;;;;;;;16.77;68.40;97914.94;4461200;32;34479;-83
2023/10/20 05:51:17;;;;;;;3.83;1.62;;;;;;;16.72;68.82;97917.22;4451009;32;33421;-83
2023/10/20 05:53:45;;;;;;;1.20;1.15;;;;;;;16.83;68.34;97912.47;4445051;32;33679;-82
2023/10/20 05:56:13;;;;;;;1.75;1.60;;;;;;;16.89;68.32;97913.69;4447714;32;33693;-83
2023/10/20 05:58:40;;;;;;;3.33;2.67;;;;;;;16.75;68.72;97922.22;4470736;32;33929;-82
2023/10/20 06:01:11;;;;;;;0.32;0.32;;;;;;;16.84;68.47;97921.31;4458160;32;34138;-82
2023/10/20 06:03:39;;;;;;;3.80;2.67;;;;;;;16.79;69.02;97916.44;4447807;32;33794;-82
2023/10/20 06:06:07;;;;;;;3.15;2.25;;;;;;;16.77;69.09;97922.91;4458447;32;33264;-82
2023/10/20 06:08:35;;;;;;;3.78;2.42;;;;;;;16.56;70.35;97925.81;4451136;32;34416;-83
2023/10/20 06:11:04;;;;;;;1.35;1.15;;;;;;;16.62;70.06;97912.75;4448668;32;33872;-84
2023/10/20 06:13:34;;;;;;;5.90;3.03;;;;;;;16.67;70.28;97906.97;4459367;32;32747;-84
2023/10/20 06:16:09;;;;;;;2.47;2.28;;;;;;;16.75;69.61;97911.56;4459462;32;33034;-82
2023/10/20 06:18:39;;;;;;;9.27;2.85;;;;;;;16.86;69.62;97909.50;4474889;32;34590;-83
2023/10/20 06:21:15;;;;;;;1.65;1.55;;;;;;;16.86;70.27;97898.84;4457202;32;33213;-82
2023/10/20 06:23:42;;;;;;;3.35;2.55;;;;;;;16.87;70.37;97907.69;4460681;32;32084;-82
2023/10/20 06:26:12;;;;;;;3.25;2.37;;;;;;;16.82;70.46;97913.47;4449161;32;32794;-81
2023/10/20 06:28:40;;;;;;;2.83;2.05;;;;;;;16.88;70.30;97912.03;4460330;32;32720;-82
2023/10/20 06:33:59;;;;;;;1.23;0.62;;;;;;;17.32;68.12;97898.69;4464626;32;33036;-82
2023/10/20 06:36:28;;;;;;;2.03;1.65;;;;;;;17.14;69.18;97891.59;4473323;32;33587;-81
2023/10/20 06:38:57;;;;;;;1.70;1.35;;;;;;;17.00;70.29;97896.66;4473800;32;32990;-82
2023/10/20 06:41:24;;;;;;;3.95;0.88;;;;;;;17.05;69.64;97895.19;4461845;32;34028;-82
2023/10/20 06:43:52;;;;;;;1.05;0.98;;;;;;;17.32;69.77;97898.69;4474401;32;33988;-82
2023/10/20 06:46:21;;;;;;;0.50;0.50;;;;;;;17.28;71.92;97884.88;4460776;32;31525;-81
2023/10/20 06:48:49;;;;;;;2.58;2.37;;;;;;;17.65;70.95;97879.22;4459299;32;32990;-82
2023/10/20 06:51:17;;;;;;;1.65;1.23;;;;;;;17.83;70.59;97883.72;4457416;32;34111;-82
2023/10/20 06:53:45;;;;;;;2.53;2.30;;;;;;;17.79;70.63;97890.34;4472059;32;33822;-82
2023/10/20 06:56:13;;;;;;;1.58;0.88;;;;;;;17.97;70.36;97892.94;4447274;32;32847;-82
2023/10/20 06:58:45;;;;;;;2.10;1.87;;;;;;;18.25;68.99;97891.72;4468930;32;33988;-82
2023/10/20 07:01:13;;;;;;;2.05;1.80;;;;;;;18.28;69.03;97887.91;4455535;32;33760;-82
2023/10/20 07:03:41;;;;;;;1.42;1.30;;;;;;;18.16;69.25;97890.03;4462200;32;34159;-82
2023/10/20 07:06:11;;;;;;;2.85;2.33;;;;;;;18.11;69.34;97889.66;4461312;32;33104;-82
2023/10/20 07:08:39;;;;;;;2.30;1.80;;;;;;;18.21;69.31;97889.53;4475888;32;33455;-81
2023/10/20 07:11:07;;;;;;;4.20;1.85;;;;;;;18.55;67.88;97892.13;4460367;32;33480;-82
2023/10/20 07:13:35;;;;;;;10.00;1.83;;;;;;;18.47;68.13;97895.66;4474722;32;34235;-82
2023/10/20 07:16:02;;;;;;;9.40;3.15;;;;;;;18.45;68.11;97896.78;4461009;32;33462;-82
2023/10/20 07:18:30;;;;;;;4.20;2.92;;;;;;;18.47;67.80;97892.97;4460340;32;33078;-81
2023/10/20 07:20:58;;;;;;;1.95;1.62;;;;;;;18.64;67.54;97892.00;4444857;32;33099;-82
2023/10/20 07:23:26;;;;;;;4.12;2.37;;;;;;;18.82;66.65;97883.03;4475318;32;34973;-82
2023/10/20 07:25:53;;;;;;;1.17;1.08;;;;;;;18.79;66.72;97891.38;4461642;32;33180;-82
2023/10/20 07:28:22;;;;;;;2.62;2.05;;;;;;;18.70;67.02;97898.53;4462465;32;34183;-82
2023/10/20 07:30:50;;;;;;;2.67;0.60;;;;;;;18.75;67.29;97903.41;4460118;32;33536;-82
2023/10/20 07:33:19;;;;;;;2.92;1.85;;;;;;;18.92;66.51;97902.41;4475750;32;33857;-81
2023/10/20 07:35:47;;;;;;;3.20;1.85;;;;;;;18.97;66.40;97902.75;4474657;32;33188;-82
2023/10/20 07:38:17;;;;;;;0.85;0.82;;;;;;;18.96;67.30;97905.59;4460539;32;33772;-82
2023/10/20 07:40:45;;;;;;;4.22;1.75;;;;;;;19.23;66.08;97896.41;4451056;32;34211;-82
2023/10/20 07:43:13;;;;;;;2.80;1.83;;;;;;;18.94;67.06;97892.38;4474044;32;34837;-81
2023/10/20 07:45:40;;;;;;;19.98;3.25;;;;;;;19.02;67.40;97884.38;4472718;32;32531;-82
2023/10/20 07:48:09;;;;;;;1.30;1.30;;;;;;;19.28;66.21;97886.06;4473382;32;34669;-82
2023/10/20 07:50:38;;;;;;;1.33;1.08;;;;;;;19.41;65.74;97894.38;4448898;32;33045;-82
2023/10/20 07:53:08;;;;;;;1.25;1.17;;;;;;;19.72;64.76;97889.16;4448756;32;33686;-82
2023/10/20 07:55:36;;;;;;;0.55;0.55;;;;;;;19.56;64.67;97887.34;4449484;32;32921;-82
2023/10/20 07:58:04;;;;;;;6.90;2.00;;;;;;;19.81;64.06;97884.63;4446251;32;33974;-82
2023/10/20 08:00:33;;;;;;;2.60;1.30;;;;;;;19.84;64.16;97878.91;4455119;32;33872;-81
2023/10/20 08:03:01;;;;;;;1.20;1.10;;;;;;;19.73;63.90;97876.63;4471764;32;34477;-82
2023/10/20 08:05:29;;;;;;;0.85;0.85;;;;;;;19.89;63.19;97871.19;4462503;32;32789;-82
2023/10/20 08:08:01;;;;;;;1.10;1.10;;;;;;;19.84;63.27;97870.88;4462011;32;33111;-82
2023/10/20 08:10:29;;;;;;;2.53;2.35;;;;;;;19.91;63.31;97870.03;4460190;32;33207;-82
2023/10/20 08:12:56;;;;;;;1.80;1.52;;;;;;;19.94;63.25;97863.50;4461349;32;33189;-82
2023/10/20 08:15:27;;;;;;;2.35;1.77;;;;;;;20.01;63.08;97861.78;4460874;32;32586;-82
2023/10/20 08:17:56;;;;;;;3.15;1.60;;;;;;;20.18;62.60;97854.53;4460966;32;33533;-82
2023/10/20 08:20:23;;;;;;;1.30;1.20;;;;;;;20.33;62.21;97841.22;4449004;32;33204;-82
2023/10/20 08:22:51;;;;;;;4.25;1.60;;;;;;;20.11;62.72;97853.53;4461421;32;33810;-82
2023/10/20 08:25:19;;;;;;;1.60;0.95;;;;;;;19.87;63.66;97857.16;4461127;32;31869;-82
2023/10/20 08:27:48;;;;;;;2.22;1.73;;;;;;;19.78;65.23;97874.25;4461551;32;33807;-82
2023/10/20 08:30:15;;;;;;;5.95;3.42;;;;;;;19.88;64.97;97874.87;4462153;32;33104;-82
2023/10/20 08:32:43;;;;;;;9.57;1.98;;;;;;;19.86;65.00;97872.38;4471987;32;34582;-81
2023/10/20 08:35:11;;;;;;;1.08;1.08;;;;;;;19.80;65.55;97866.91;4450385;32;33288;-82
2023/10/20 08:37:39;;;;;;;3.97;1.65;;;;;;;19.89;65.36;97872.06;4462377;32;33191;-82
2023/10/20 08:40:10;;;;;;;1.45;1.10;;;;;;;19.85;65.14;97891.31;4450372;32;34185;-82
2023/10/20 08:42:42;;;;;;;1.12;1.12;;;;;;;19.95;64.62;97886.59;4450873;32;33237;-82
2023/10/20 08:45:13;;;;;;;3.50;1.25;;;;;;;20.18;63.39;97873.28;4450544;32;32580;-82
2023/10/20 08:47:43;;;;;;;0.57;0.57;;;;;;;20.23;63.70;97878.12;4450220;32;33294;-81
2023/10/20 08:50:13;;;;;;;1.50;1.40;;;;;;;20.60;62.00;97880.09;4469381;32;34069;-84
2023/10/20 08:52:44;;;;;;;1.42;0.85;;;;;;;20.38;62.68;97887.91;4450020;32;34155;-83
2023/10/20 08:55:13;;;;;;;1.58;1.30;;;;;;;20.33;63.85;97878.72;4450302;32;32814;-83
2023/10/20 08:57:41;;;;;;;3.03;1.65;;;;;;;20.27;64.13;97884.75;4463312;32;34086;-83
2023/10/20 09:00:19;;;;;;;4.78;1.80;;;;;;;20.14;63.90;97886.19;4459034;32;33554;-83
2023/10/20 09:02:48;;;;;;;2.25;2.05;;;;;;;20.39;63.03;97878.84;4456763;32;33024;-83
2023/10/20 09:05:21;;;;;;;1.00;0.82;;;;;;;20.35;63.00;97882.06;4463723;32;33936;-82
2023/10/20 09:07:54;;;;;;;0.88;0.70;;;;;;;20.41;62.68;97881.34;4460257;32;33636;-83
2023/10/20 09:10:23;;;;;;;2.45;1.27;;;;;;;20.45;62.22;97877.31;4463083;32;33394;-83
2023/10/20 09:12:51;;;;;;;1.15;1.10;;;;;;;20.62;61.32;97870.03;4454590;32;33645;-82
2023/10/20 09:15:19;;;;;;;1.37;1.27;;;;;;;20.55;60.96;97874.44;4463080;32;33376;-83
2023/10/20 09:17:54;;;;;;;0.65;0.60;;;;;;;20.85;60.45;97870.06;4462768;32;33736;-82
2023/10/20 09:20:23;;;;;;;2.08;1.73;;;;;;;20.90;60.56;97871.19;4464562;32;33735;-82
2023/10/20 09:22:51;;;;;;;9.15;2.33;;;;;;;20.68;59.64;97867.47;4462816;32;34196;-82
2023/10/20 09:25:19;;;;;;;2.50;2.15;;;;;;;21.27;58.32;97863.31;4461412;32;34336;-82
2023/10/20 09:27:48;;;;;;;7.93;1.05;;;;;;;21.43;58.60;97855.16;4460458;32;34016;-82
2023/10/20 09:30:16;;;;;;;9.23;1.25;;;;;;;21.53;58.45;97850.34;4479900;32;33961;-82
2023/10/20 09:32:44;;;;;;;3.03;1.65;;;;;;;21.40;58.33;97860.88;4455817;32;34118;-82
2023/10/20 09:35:12;;;;;;;5.32;1.67;;;;;;;21.61;57.35;97852.94;4461191;32;33323;-82
2023/10/20 09:37:39;;;;;;;7.18;3.08;;;;;;;21.66;57.28;97855.91;4475454;32;34615;-82
2023/10/20 09:40:09;;;;;;;3.08;2.20;;;;;;;21.72;57.46;97848.97;4472365;32;33041;-82
2023/10/20 09:43:11;;;;;;;3.72;2.20;;;;;;;21.88;57.15;97848.75;4454581;32;32934;-82
2023/10/20 09:46:26;;;;;;;0.40;0.40;;;;;;;22.28;55.95;97829.66;4474980;32;32949;-82
2023/10/20 09:48:57;;;;;;;6.43;1.10;;;;;;;22.06;55.44;97832.25;4469964;31;32920;-83
2023/10/20 09:51:27;;;;;;;2.05;1.00;;;;;;;22.26;55.18;97827.13;4470463;32;33847;-83
2023/10/20 09:53:56;;;;;;;8.95;1.52;;;;;;;22.49;55.05;97832.38;4462956;32;34704;-85
2023/10/20 09:56:24;;;;;;;1.55;1.12;;;;;;;22.34;54.35;97831.59;4461616;32;33032;-84
2023/10/20 09:58:58;;;;;;;0.90;0.88;;;;;;;22.40;55.16;97831.63;4450027;32;34436;-83
2023/10/20 10:01:26;;;;;;;1.12;1.02;;;;;;;22.55;54.00;97837.00;4448857;32;33270;-83
2023/10/20 10:04:14;;;;;;;3.90;1.30;;;;;;;22.81;53.02;97833.72;4474582;32;35111;-82
2023/10/20 10:06:43;;;;;;;2.25;1.52;;;;;;;23.08;53.31;97825.94;4458588;32;33637;-81
2023/10/20 10:09:15;;;;;;;0.35;0.35;;;;;;;23.15;53.57;97808.78;4450604;32;34262;-81
2023/10/20 10:11:43;;;;;;;4.20;0.60;;;;;;;23.55;52.09;97787.53;4445510;32;34002;-81
2023/10/20 10:14:21;;;;;;;2.15;1.27;;;;;;;23.10;53.23;97794.25;4447753;32;33750;-82
2023/10/20 10:16:50;;;;;;;0.93;0.88;;;;;;;23.22;52.94;97804.31;4459697;32;32749;-81
2023/10/20 10:19:18;;;;;;;1.23;0.68;;;;;;;23.13;52.68;97818.94;4461259;32;33097;-81
2023/10/20 10:21:53;;;;;;;1.42;1.05;;;;;;;23.03;52.23;97825.69;4460619;32;34250;-81
2023/10/20 10:24:22;;;;;;;1.83;0.85;;;;;;;23.07;52.09;97833.16;4450020;32;33332;-81
2023/10/20 10:27:06;;;;;;;1.05;0.95;;;;;;;23.44;51.97;97834.69;4450830;32;33171;-81
2023/10/20 10:29:54;;;;;;;0.70;0.40;;;;;;;23.36;51.05;97831.31;4453237;32;33053;-81
2023/10/20 10:32:26;;;;;;;1.05;0.52;;;;;;;23.81;50.03;97821.06;4461322;32;34859;-82
2023/10/20 10:34:55;;;;;;;1.87;1.75;;;;;;;23.90;50.73;97830.63;4450836;32;33220;-81
2023/10/20 10:37:33;;;;;;;3.03;0.75;;;;;;;24.29;49.97;97827.28;4436226;32;33961;-81
2023/10/20 10:40:14;;;;;;;1.50;0.95;;;;;;;24.21;50.19;97824.75;4461870;32;33834;-82
2023/10/20 10:42:43;;;;;;;2.80;1.45;;;;;;;24.23;49.31;97825.41;4447637;32;33598;-81
2023/10/20 10:45:23;;;;;;;0.75;0.73;;;;;;;24.41;49.11;97816.78;4445936;32;33539;-81
2023/10/20 10:48:02;;;;;;;0.75;0.65;;;;;;;24.77;48.98;97813.72;4461591;32;34748;-81
2023/10/20 10:50:32;;;;;;;3.45;1.45;;;;;;;24.99;48.02;97800.88;4473048;32;33445;-81
2023/10/20 10:53:01;;;;;;;6.12;1.10;;;;;;;24.87;48.21;97792.53;4454561;32;33560;-82
2023/10/20 10:55:30;;;;;;;5.82;2.28;;;;;;;24.90;48.07;97797.53;4450031;32;34809;-81
2023/10/20 10:57:58;;;;;;;2.15;1.75;;;;;;;25.11;47.00;97788.41;4461945;32;32629;-81
2023/10/20 11:00:26;;;;;;;0.77;0.70;;;;;;;25.11;47.35;97790.28;4449062;32;34049;-81
2023/10/20 11:02:56;;;;;;;4.30;1.67;;;;;;;25.01;47.41;97778.00;4462442;32;33679;-82
2023/10/20 11:05:25;;;;;;;4.28;1.48;;;;;;;25.23;46.85;97770.56;4461710;32;32389;-81
2023/10/20 11:08:05;;;;;;;5.05;0.90;;;;;;;25.29;46.69;97758.91;4462726;32;33872;-81
2023/10/20 11:10:35;;;;;;;0.50;0.50;;;;;;;24.98;47.01;97750.63;4462660;31;33936;-81
2023/10/20 11:13:10;;;;;;;1.10;0.68;;;;;;;25.03;47.41;97745.41;4466764;32;34417;-82
2023/10/20 11:15:40;;;;;;;0.75;0.75;;;;;;;25.31;46.69;97738.97;4471939;32;34824;-81
2023/10/20 11:18:10;;;;;;;0.50;0.50;;;;;;;25.26;46.72;97737.72;4458102;32;34305;-82
2023/10/20 11:20:41;;;;;;;1.12;0.80;;;;;;;25.67;46.34;97723.03;4447957;32;36018;-83
2023/10/20 11:23:12;;;;;;;3.23;1.90;;;;;;;25.86;45.89;97698.87;4446249;32;33872;-81
2023/10/20 11:25:41;;;;;;;1.05;0.95;;;;;;;26.20;47.40;97706.56;4468829;32;33979;-81
2023/10/20 11:28:09;;;;;;;0.95;0.82;;;;;;;26.48;46.28;97714.34;4461151;32;33701;-81
2023/10/20 11:30:38;;;;;;;0.50;0.50;;;;;;;26.50;45.25;97717.66;4457594;32;33344;-83
2023/10/20 11:33:12;;;;;;;7.57;1.33;;;;;;;26.72;45.26;97715.41;4449285;32;34293;-81
2023/10/20 11:35:46;;;;;;;1.50;0.65;;;;;;;26.99;44.47;97720.59;4473766;32;33337;-81
2023/10/20 11:38:17;;;;;;;0.77;0.77;;;;;;;26.98;43.17;97705.41;4447116;32;32654;-81
2023/10/20 11:40:49;;;;;;;0.20;0.20;;;;;;;26.77;36.92;97695.78;4474753;32;34309;-80
2023/10/20 11:43:17;;;;;;;0.70;0.50;;;;;;;26.91;37.01;97691.06;4458333;32;33451;-82
2023/10/20 11:45:45;;;;;;;0.13;0.10;;;;;;;27.12;36.54;97714.25;4471791;32;32088;-80
2023/10/20 11:48:13;;;;;;;1.70;1.08;;;;;;;27.31;35.26;97708.63;4465685;32;226392;-80
2023/10/20 11:50:41;;;;;;;0.95;0.90;;;;;;;26.99;35.71;97702.47;4465093;32;32955;-81
2023/10/20 11:53:09;;;;;;;0.80;0.80;;;;;;;27.19;35.89;97702.28;4454850;32;33287;-80
2023/10/20 11:55:36;;;;;;;0.50;0.50;;;;;;;27.44;35.16;97702.25;4461070;32;32965;-81
2023/10/20 11:58:04;;;;;;;0.28;0.28;;;;;;;27.48;35.46;97694.47;4444956;32;32726;-81
2023/10/20 12:00:32;;;;;;;1.15;1.05;;;;;;;27.26;35.17;97699.53;4470033;32;33780;-81
2023/10/20 12:03:00;;;;;;;0.70;0.70;;;;;;;27.46;35.32;97683.03;4456760;32;33301;-81
2023/10/20 12:05:33;;;;;;;3.37;1.45;;;;;;;27.39;34.46;97698.53;4457111;32;33050;-82
2023/10/20 12:08:01;;;;;;;;;;;;;;;27.38;34.58;97692.28;4470208;32;33851;-81
2023/10/20 12:10:30;;;;;;;;;;;;;;;27.34;34.58;97690.25;4462164;32;34559;-81
2023/10/20 12:13:02;;;;;;;;;;;;;;;27.56;34.30;97695.00;4460254;32;34681;-81
2023/10/20 12:15:31;;;;;;;;;;;;;;;27.08;34.62;97688.62;4472823;32;31705;-81
2023/10/20 12:17:58;;;;;;;;;;;;;;;27.28;34.74;97697.41;4461622;32;33398;-81